createdAt,value
2023-05-16T00:00:01.870Z,52.70
2023-05-16T00:02:28.772Z,52.80
2023-05-16T00:04:56.159Z,52.70
2023-05-16T00:07:22.920Z,52.70
2023-05-16T00:09:49.720Z,53.20
2023-05-16T00:12:17.903Z,53.10
2023-05-16T00:14:45.268Z,53.30
2023-05-16T00:17:12.460Z,53.40
2023-05-16T00:19:39.258Z,53.50
2023-05-16T00:22:06.830Z,53.50
2023-05-16T00:24:34.674Z,53.50
2023-05-16T00:27:01.519Z,53.50
2023-05-16T00:29:28.391Z,53.50
2023-05-16T00:31:55.302Z,53.60
2023-05-16T00:34:23.009Z,53.60
2023-05-16T00:36:53.703Z,54.10
2023-05-16T00:39:20.493Z,54.00
2023-05-16T00:41:47.576Z,54.00
2023-05-16T00:44:14.359Z,53.90
2023-05-16T00:46:41.369Z,54.20
2023-05-16T00:49:09.218Z,54.30
2023-05-16T00:51:37.950Z,54.00
2023-05-16T00:54:06.051Z,54.10
2023-05-16T00:56:34.180Z,53.80
2023-05-16T00:59:01.372Z,54.00
2023-05-16T01:01:28.767Z,54.10
2023-05-16T01:03:56.084Z,54.20
2023-05-16T01:06:23.079Z,54.30
2023-05-16T01:08:49.895Z,54.40
2023-05-16T01:11:17.008Z,54.30
2023-05-16T01:13:52.738Z,54.40
2023-05-16T01:16:47.066Z,54.60
2023-05-16T01:19:32.420Z,54.40
2023-05-16T01:22:13.428Z,54.60
2023-05-16T01:25:02.435Z,54.30
2023-05-16T01:27:30.211Z,54.00
2023-05-16T01:29:57.307Z,54.60
2023-05-16T01:32:24.800Z,54.20
2023-05-16T01:34:52.185Z,54.20
2023-05-16T01:37:36.090Z,54.40
2023-05-16T01:40:12.855Z,54.70
2023-05-16T01:42:44.839Z,54.30
2023-05-16T01:45:17.611Z,54.50
2023-05-16T01:47:50.815Z,54.50
2023-05-16T01:50:18.454Z,54.60
2023-05-16T01:52:56.423Z,54.50
2023-05-16T01:55:51.973Z,54.90
2023-05-16T01:58:22.816Z,55.10
2023-05-16T02:00:49.592Z,55.30
2023-05-16T02:03:16.356Z,55.00
2023-05-16T02:05:43.212Z,54.90
2023-05-16T02:08:10.421Z,55.30
2023-05-16T02:10:37.130Z,55.30
2023-05-16T02:13:03.943Z,54.90
2023-05-16T02:15:30.916Z,55.10
2023-05-16T02:17:58.757Z,54.80
2023-05-16T02:20:25.636Z,55.00
2023-05-16T02:22:52.614Z,55.10
2023-05-16T02:25:19.440Z,54.90
2023-05-16T02:27:46.219Z,55.00
2023-05-16T02:30:13.301Z,55.00
2023-05-16T02:32:41.196Z,54.90
2023-05-16T02:35:08.397Z,55.10
2023-05-16T02:37:35.509Z,54.70
2023-05-16T02:40:04.056Z,54.60
2023-05-16T02:42:32.175Z,54.30
2023-05-16T02:44:58.985Z,54.30
2023-05-16T02:47:26.016Z,54.00
2023-05-16T02:49:53.119Z,54.20
2023-05-16T02:52:20.416Z,54.10
2023-05-16T02:54:56.113Z,54.30
2023-05-16T02:57:34.273Z,54.00
2023-05-16T03:00:01.019Z,54.00
2023-05-16T03:02:27.871Z,54.10
2023-05-16T03:04:54.696Z,54.20
2023-05-16T03:07:21.448Z,54.30
2023-05-16T03:09:48.188Z,54.20
2023-05-16T03:12:15.065Z,54.10
2023-05-16T03:14:41.843Z,53.80
2023-05-16T03:17:09.211Z,53.90
2023-05-16T03:19:36.076Z,53.90
2023-05-16T03:22:03.163Z,54.20
2023-05-16T03:24:30.314Z,54.10
2023-05-16T03:26:57.414Z,53.80
2023-05-16T03:29:24.227Z,53.90
2023-05-16T03:31:51.249Z,53.70
2023-05-16T03:34:17.990Z,53.90
2023-05-16T03:36:44.729Z,53.80
2023-05-16T03:39:11.496Z,53.70
2023-05-16T03:41:38.240Z,53.50
2023-05-16T03:44:05.304Z,53.50
2023-05-16T03:46:32.193Z,53.40
2023-05-16T03:48:59.230Z,53.50
2023-05-16T03:51:26.091Z,53.50
2023-05-16T03:53:52.871Z,53.70
2023-05-16T03:56:19.732Z,53.50
2023-05-16T03:58:46.547Z,53.50
2023-05-16T04:01:13.337Z,53.40
2023-05-16T04:03:40.217Z,53.50
2023-05-16T04:06:08.069Z,53.50
2023-05-16T04:08:34.889Z,53.20
2023-05-16T04:11:01.604Z,53.30
2023-05-16T04:13:28.347Z,53.00
2023-05-16T04:15:55.141Z,53.10
2023-05-16T04:18:21.866Z,53.00
2023-05-16T04:20:48.860Z,53.20
2023-05-16T04:23:16.098Z,52.90
2023-05-16T04:25:42.965Z,52.90
2023-05-16T04:28:09.764Z,53.10
2023-05-16T04:30:37.498Z,52.80
2023-05-16T04:33:04.446Z,52.70
2023-05-16T04:35:31.275Z,52.90
2023-05-16T04:37:58.068Z,52.60
2023-05-16T04:40:25.471Z,52.90
2023-05-16T04:42:53.441Z,52.70
2023-05-16T04:45:21.082Z,52.60
2023-05-16T04:47:48.037Z,52.80
2023-05-16T04:50:16.153Z,52.40
2023-05-16T04:52:42.984Z,52.70
2023-05-16T04:55:10.701Z,52.30
2023-05-16T04:57:37.459Z,52.10
2023-05-16T05:00:08.039Z,52.10
2023-05-16T05:02:35.031Z,52.30
2023-05-16T05:05:01.941Z,52.10
2023-05-16T05:07:29.194Z,52.10
2023-05-16T05:09:58.977Z,52.10
2023-05-16T05:12:27.165Z,52.20
2023-05-16T05:14:54.375Z,51.90
2023-05-16T05:17:21.803Z,51.90
2023-05-16T05:19:48.639Z,51.90
2023-05-16T05:22:15.964Z,51.60
2023-05-16T05:24:42.866Z,51.90
2023-05-16T05:27:09.905Z,51.80
2023-05-16T05:29:36.615Z,51.70
2023-05-16T05:32:03.673Z,51.50
2023-05-16T05:34:30.867Z,51.50
2023-05-16T05:36:57.771Z,51.60
2023-05-16T05:39:25.858Z,51.10
2023-05-16T05:41:55.678Z,51.30
2023-05-16T05:44:22.463Z,51.30
2023-05-16T05:46:49.292Z,51.00
2023-05-16T05:49:16.318Z,51.10
2023-05-16T05:51:43.365Z,51.10
2023-05-16T05:54:10.285Z,51.00
2023-05-16T05:56:37.056Z,50.60
2023-05-16T05:59:03.862Z,50.80
2023-05-16T06:01:30.748Z,50.60
2023-05-16T06:03:58.850Z,50.90
2023-05-16T06:06:26.898Z,50.70
2023-05-16T06:08:53.680Z,50.80
2023-05-16T06:11:21.521Z,50.70
2023-05-16T06:13:48.401Z,50.20
2023-05-16T06:16:15.185Z,50.40
2023-05-16T06:18:42.465Z,50.20
2023-05-16T06:21:09.663Z,50.00
2023-05-16T06:23:36.783Z,50.00
2023-05-16T06:26:04.122Z,49.90
2023-05-16T06:28:31.361Z,49.70
2023-05-16T06:30:58.182Z,50.00
2023-05-16T06:33:25.057Z,49.80
2023-05-16T06:35:52.474Z,49.70
2023-05-16T06:38:19.820Z,50.00
2023-05-16T06:40:46.671Z,49.40
2023-05-16T06:43:13.562Z,48.90
2023-05-16T06:45:40.934Z,49.10
2023-05-16T06:48:08.621Z,48.90
2023-05-16T06:50:35.731Z,48.90
2023-05-16T06:53:04.972Z,49.20
2023-05-16T06:55:31.878Z,49.10
2023-05-16T06:57:58.726Z,49.00
2023-05-16T07:00:25.999Z,49.20
2023-05-16T07:02:53.394Z,48.60
2023-05-16T07:05:20.317Z,48.80
2023-05-16T07:07:47.556Z,49.00
2023-05-16T07:10:14.392Z,48.60
2023-05-16T07:12:43.068Z,48.40
2023-05-16T07:15:10.450Z,47.70
2023-05-16T07:17:37.549Z,47.80
2023-05-16T07:20:05.661Z,47.20
2023-05-16T07:22:32.722Z,47.30
2023-05-16T07:25:01.413Z,47.20
2023-05-16T07:27:28.661Z,46.90
2023-05-16T07:29:55.704Z,47.00
2023-05-16T07:32:22.661Z,46.80
2023-05-16T07:34:49.647Z,46.70
2023-05-16T07:37:16.602Z,46.00
2023-05-16T07:39:43.445Z,46.00
2023-05-16T07:42:10.676Z,46.00
2023-05-16T07:44:37.524Z,45.90
2023-05-16T07:47:04.501Z,45.90
2023-05-16T07:49:31.314Z,45.60
2023-05-16T07:51:58.145Z,45.50
2023-05-16T07:54:25.135Z,45.10
2023-05-16T07:56:52.041Z,45.50
2023-05-16T07:59:18.835Z,45.40
2023-05-16T08:01:45.954Z,45.20
2023-05-16T08:04:12.835Z,45.00
2023-05-16T08:06:39.561Z,45.20
2023-05-16T08:09:06.388Z,44.90
2023-05-16T08:11:33.274Z,44.40
2023-05-16T08:14:00.132Z,43.00
2023-05-16T08:16:26.992Z,42.00
2023-05-16T08:18:53.942Z,41.00
2023-05-16T08:21:20.941Z,40.90
2023-05-16T08:23:47.728Z,40.80
2023-05-16T08:26:14.474Z,40.20
2023-05-16T08:28:41.253Z,39.40
2023-05-16T08:31:08.113Z,38.70
2023-05-16T08:33:34.941Z,38.60
2023-05-16T08:36:01.911Z,39.00
2023-05-16T08:38:28.714Z,39.60
2023-05-16T08:40:56.003Z,38.00
2023-05-16T08:43:23.531Z,38.40
2023-05-16T08:45:50.418Z,38.60
2023-05-16T08:48:20.876Z,37.90
2023-05-16T08:50:48.050Z,38.10
2023-05-16T08:53:17.980Z,38.20
2023-05-16T08:55:48.441Z,38.10
2023-05-16T08:58:16.425Z,37.70
2023-05-16T09:00:44.004Z,37.20
2023-05-16T09:03:11.548Z,37.20
2023-05-16T09:05:38.765Z,36.40
2023-05-16T09:08:06.574Z,37.20
2023-05-16T09:10:33.413Z,36.80
2023-05-16T09:13:00.276Z,36.70
2023-05-16T09:15:32.603Z,36.70
2023-05-16T09:18:02.906Z,36.40
2023-05-16T09:20:29.931Z,36.20
2023-05-16T09:22:58.759Z,36.40
2023-05-16T09:25:30.820Z,36.40
2023-05-16T09:28:01.222Z,36.30
2023-05-16T09:30:30.896Z,35.80
2023-05-16T09:32:57.885Z,36.00
2023-05-16T09:35:39.877Z,36.20
2023-05-16T09:38:16.809Z,35.40
2023-05-16T09:40:44.526Z,35.50
2023-05-16T09:43:14.435Z,35.50
2023-05-16T09:45:46.595Z,35.40
2023-05-16T09:48:14.301Z,34.50
2023-05-16T09:50:46.578Z,34.30
2023-05-16T09:53:14.259Z,34.30
2023-05-16T09:55:41.094Z,33.60
2023-05-16T09:58:07.853Z,34.40
2023-05-16T10:00:34.872Z,33.90
2023-05-16T10:03:05.341Z,33.70
2023-05-16T10:05:33.813Z,33.60
2023-05-16T10:08:03.246Z,33.50
2023-05-16T10:10:30.682Z,33.80
2023-05-16T10:13:00.250Z,33.80
2023-05-16T10:15:29.520Z,33.30
2023-05-16T10:18:00.071Z,33.80
2023-05-16T10:20:27.519Z,34.00
2023-05-16T10:22:56.882Z,33.60
2023-05-16T10:25:34.162Z,32.70
2023-05-16T10:28:01.280Z,32.40
2023-05-16T10:30:28.427Z,32.70
2023-05-16T10:32:56.573Z,32.40
2023-05-16T10:35:23.781Z,32.20
2023-05-16T10:37:51.582Z,31.70
2023-05-16T10:40:19.012Z,31.30
2023-05-16T10:42:56.577Z,31.80
2023-05-16T10:45:23.972Z,32.40
2023-05-16T10:48:05.198Z,33.40
2023-05-16T10:50:34.907Z,33.70
2023-05-16T10:53:19.961Z,33.80
2023-05-16T10:55:49.605Z,33.20
2023-05-16T10:58:24.465Z,33.40
2023-05-16T11:01:23.872Z,32.50
2023-05-16T11:04:02.657Z,32.20
2023-05-16T11:06:29.651Z,32.90
2023-05-16T11:09:05.643Z,32.80
2023-05-16T11:11:46.310Z,33.40
2023-05-16T11:14:29.092Z,32.90
2023-05-16T11:17:04.849Z,33.40
2023-05-16T11:19:33.534Z,33.20
2023-05-16T11:22:09.440Z,33.30
2023-05-16T11:24:38.099Z,32.60
2023-05-16T11:27:05.988Z,33.10
2023-05-16T11:29:34.422Z,33.40
2023-05-16T11:32:03.864Z,33.70
2023-05-16T11:34:32.341Z,32.70
2023-05-16T11:37:00.341Z,32.90
2023-05-16T11:39:27.873Z,32.60
2023-05-16T11:41:54.733Z,32.90
2023-05-16T11:44:21.604Z,32.90
2023-05-16T11:46:48.514Z,32.60
2023-05-16T11:49:15.578Z,32.50
2023-05-16T11:51:46.809Z,32.40
2023-05-16T11:54:13.883Z,31.90
2023-05-16T11:56:41.470Z,32.20
2023-05-16T11:59:08.384Z,31.90
2023-05-16T12:01:37.273Z,32.00
2023-05-16T12:04:14.803Z,32.50
2023-05-16T12:06:45.754Z,32.20
2023-05-16T12:09:16.136Z,32.50
2023-05-16T12:11:44.736Z,32.80
2023-05-16T12:14:13.148Z,33.20
2023-05-16T12:16:44.021Z,33.20
2023-05-16T12:19:11.918Z,34.10
2023-05-16T12:21:39.741Z,33.60
2023-05-16T12:24:12.079Z,34.40
2023-05-16T12:26:41.227Z,34.40
2023-05-16T12:29:08.282Z,34.20
2023-05-16T12:31:41.737Z,33.70
2023-05-16T12:34:21.392Z,33.70
2023-05-16T12:36:53.048Z,32.60
2023-05-16T12:39:20.425Z,31.90
2023-05-16T12:41:47.241Z,32.80
2023-05-16T12:44:19.512Z,33.40
2023-05-16T12:46:50.832Z,33.80
2023-05-16T12:49:24.181Z,34.40
2023-05-16T12:51:52.649Z,34.30
2023-05-16T12:54:20.544Z,34.40
2023-05-16T12:56:47.497Z,34.50
2023-05-16T12:59:15.081Z,34.40
2023-05-16T13:01:42.319Z,34.50
2023-05-16T13:04:09.707Z,34.80
2023-05-16T13:06:52.951Z,34.00
2023-05-16T13:09:24.974Z,34.10
2023-05-16T13:11:52.426Z,33.40
2023-05-16T13:14:19.211Z,32.60
2023-05-16T13:16:46.014Z,32.90
2023-05-16T13:19:12.908Z,32.70
2023-05-16T13:21:42.015Z,32.70
2023-05-16T13:24:08.989Z,32.40
2023-05-16T13:26:35.862Z,32.60
2023-05-16T13:29:02.858Z,32.50
2023-05-16T13:31:29.700Z,32.50
2023-05-16T13:33:56.695Z,32.50
2023-05-16T13:36:23.493Z,32.50
2023-05-16T13:38:50.376Z,32.70
2023-05-16T13:41:17.151Z,33.00
2023-05-16T13:43:43.890Z,33.20
2023-05-16T13:46:10.846Z,33.00
2023-05-16T13:48:37.772Z,32.90
2023-05-16T13:51:04.736Z,33.10
2023-05-16T13:53:31.653Z,32.30
2023-05-16T13:55:58.425Z,32.40
2023-05-16T13:58:25.461Z,31.70
2023-05-16T14:00:52.797Z,30.20
2023-05-16T14:03:20.580Z,30.10
2023-05-16T14:05:49.681Z,29.70
2023-05-16T14:08:16.707Z,29.00
2023-05-16T14:10:43.708Z,29.00
2023-05-16T14:13:10.657Z,28.40
2023-05-16T14:15:37.499Z,28.60
2023-05-16T14:18:05.099Z,28.30
2023-05-16T14:20:32.087Z,28.40
2023-05-16T14:22:59.389Z,28.10
2023-05-16T14:25:26.376Z,28.00
2023-05-16T14:27:53.491Z,28.20
2023-05-16T14:30:20.500Z,28.10
2023-05-16T14:32:47.389Z,28.10
2023-05-16T14:35:14.675Z,28.10
2023-05-16T14:37:41.431Z,28.30
2023-05-16T14:40:09.593Z,28.40
2023-05-16T14:42:36.582Z,28.50
2023-05-16T14:45:03.595Z,28.40
2023-05-16T14:47:31.375Z,28.70
2023-05-16T14:49:58.440Z,28.70
2023-05-16T14:52:25.418Z,28.60
2023-05-16T14:54:52.356Z,28.90
2023-05-16T14:57:19.144Z,28.80
2023-05-16T14:59:47.054Z,28.90
2023-05-16T15:02:13.988Z,28.80
2023-05-16T15:04:40.971Z,29.60
2023-05-16T15:07:07.866Z,29.30
2023-05-16T15:09:34.699Z,29.30
2023-05-16T15:12:01.951Z,29.40
2023-05-16T15:14:28.792Z,29.80
2023-05-16T15:16:55.834Z,29.30
2023-05-16T15:19:23.002Z,29.50
2023-05-16T15:21:50.129Z,29.50
2023-05-16T15:24:17.988Z,29.40
2023-05-16T15:26:44.784Z,29.40
2023-05-16T15:29:11.635Z,29.30
2023-05-16T15:31:38.523Z,29.50
2023-05-16T15:34:06.436Z,29.20
2023-05-16T15:36:33.309Z,29.50
2023-05-16T15:39:00.260Z,29.80
2023-05-16T15:43:59.314Z,30.30
2023-05-16T15:46:26.764Z,30.90
2023-05-16T15:48:53.635Z,31.80
2023-05-16T15:51:20.457Z,32.10
2023-05-16T15:53:48.171Z,32.60
2023-05-16T15:56:15.033Z,32.80
2023-05-16T16:05:27.658Z,32.70
2023-05-16T16:12:45.380Z,33.00
2023-05-16T16:19:12.154Z,32.70
2023-05-16T16:22:37.880Z,32.60
2023-05-16T16:25:46.748Z,32.10
2023-05-16T17:14:26.359Z,33.60
2023-05-16T17:16:53.254Z,33.90
2023-05-16T17:19:20.206Z,33.70
2023-05-16T17:21:47.461Z,33.60
2023-05-16T17:24:14.293Z,33.70
2023-05-16T17:26:41.243Z,33.80
2023-05-16T17:29:08.351Z,33.70
2023-05-16T17:31:35.457Z,33.60
2023-05-16T17:34:02.312Z,33.50
2023-05-16T17:36:29.121Z,33.50
2023-05-16T17:38:56.257Z,33.30
2023-05-16T17:41:23.162Z,33.60
2023-05-16T17:43:50.026Z,33.60
2023-05-16T17:46:16.950Z,33.90
2023-05-16T17:48:44.224Z,34.20
2023-05-16T17:51:11.445Z,34.20
2023-05-16T17:53:38.494Z,34.80
2023-05-16T17:56:05.615Z,35.00
2023-05-16T17:58:32.432Z,35.80
2023-05-16T18:01:00.313Z,35.70
2023-05-16T18:03:27.236Z,36.10
2023-05-16T18:05:54.346Z,36.40
2023-05-16T18:08:21.193Z,36.60
2023-05-16T18:10:52.030Z,36.70
2023-05-16T18:13:20.158Z,36.70
2023-05-16T18:15:47.106Z,37.00
2023-05-16T18:18:13.922Z,37.00
2023-05-16T18:20:40.942Z,37.00
2023-05-16T18:23:08.532Z,37.00
2023-05-16T18:25:35.479Z,36.70
2023-05-16T18:28:02.583Z,36.90
2023-05-16T18:30:29.500Z,36.90
2023-05-16T18:32:56.965Z,36.70
2023-05-16T18:35:24.149Z,36.50
2023-05-16T18:37:51.169Z,36.90
2023-05-16T18:40:18.217Z,36.70
2023-05-16T18:42:45.104Z,36.80
2023-05-16T18:45:12.006Z,36.80
2023-05-16T18:47:39.164Z,36.80
2023-05-16T18:50:06.783Z,36.80
2023-05-16T18:52:35.350Z,36.90
2023-05-16T18:55:02.183Z,36.90
2023-05-16T18:57:29.073Z,36.70
2023-05-16T18:59:56.645Z,36.70
2023-05-16T19:02:33.981Z,36.60
2023-05-16T19:05:08.471Z,36.90
2023-05-16T19:07:35.551Z,36.80
2023-05-16T19:10:03.834Z,36.90
2023-05-16T19:12:31.303Z,37.00
2023-05-16T19:14:58.351Z,36.90
2023-05-16T19:17:25.742Z,37.00
2023-05-16T19:19:52.688Z,37.00
2023-05-16T19:22:19.529Z,36.80
2023-05-16T19:24:46.314Z,36.90
2023-05-16T19:27:13.380Z,36.80
2023-05-16T19:29:40.428Z,36.70
2023-05-16T19:32:07.691Z,36.40
2023-05-16T19:34:34.478Z,36.20
2023-05-16T19:37:02.692Z,36.30
2023-05-16T19:39:30.710Z,36.40
2023-05-16T19:42:06.220Z,36.30
2023-05-16T19:44:34.056Z,36.30
2023-05-16T19:47:00.904Z,36.30
2023-05-16T19:49:28.773Z,36.20
2023-05-16T19:51:55.853Z,36.60
2023-05-16T19:54:22.718Z,36.30
2023-05-16T19:56:49.629Z,36.60
2023-05-16T19:59:16.674Z,36.40
2023-05-16T20:01:43.774Z,36.60
2023-05-16T20:04:11.730Z,36.60
2023-05-16T20:06:38.810Z,36.40
2023-05-16T20:09:06.309Z,36.30
2023-05-16T20:11:33.419Z,36.40
2023-05-16T20:14:00.461Z,37.40
2023-05-16T20:16:27.546Z,36.70
2023-05-16T20:18:54.492Z,36.70
2023-05-16T20:21:21.414Z,36.60
2023-05-16T20:23:48.306Z,36.60
2023-05-16T20:26:15.331Z,36.90
2023-05-16T20:28:42.440Z,36.70
2023-05-16T20:31:09.500Z,37.00
2023-05-16T20:33:36.494Z,36.90
2023-05-16T20:36:03.497Z,36.90
2023-05-16T20:38:30.402Z,37.20
2023-05-16T20:40:57.313Z,37.40
2023-05-16T20:43:26.533Z,37.40
2023-05-16T20:45:53.634Z,37.60
2023-05-16T20:48:23.611Z,37.50
2023-05-16T20:50:50.505Z,37.50
2023-05-16T20:53:17.264Z,37.60
2023-05-16T20:55:44.156Z,37.40
2023-05-16T20:58:11.102Z,37.80
2023-05-16T21:00:37.945Z,37.70
2023-05-16T21:03:04.725Z,37.60
2023-05-16T21:05:33.512Z,37.80
2023-05-16T21:08:00.313Z,37.70
2023-05-16T21:10:27.181Z,37.70
2023-05-16T21:12:53.943Z,37.80
2023-05-16T21:15:23.251Z,37.80
2023-05-16T21:17:51.190Z,37.70
2023-05-16T21:20:18.122Z,37.70
2023-05-16T21:22:45.032Z,37.90
2023-05-16T21:25:11.810Z,37.70
2023-05-16T21:27:39.934Z,37.80
2023-05-16T21:30:07.427Z,38.20
2023-05-16T21:32:34.442Z,38.50
2023-05-16T21:35:01.409Z,39.00
2023-05-16T21:37:28.191Z,39.20
2023-05-16T21:39:55.011Z,39.40
2023-05-16T21:42:21.885Z,39.50
2023-05-16T21:44:48.754Z,40.00
2023-05-16T21:47:15.610Z,40.30
2023-05-16T21:49:42.557Z,40.20
2023-05-16T21:52:09.812Z,40.20
2023-05-16T21:54:36.679Z,40.30
2023-05-16T21:57:03.585Z,40.50
2023-05-16T21:59:30.463Z,40.60
2023-05-16T22:01:57.264Z,40.80
2023-05-16T22:04:24.484Z,41.10
2023-05-16T22:06:51.507Z,41.10
2023-05-16T22:09:18.885Z,40.90
2023-05-16T22:11:45.909Z,41.10
2023-05-16T22:14:12.785Z,40.80
2023-05-16T22:16:39.767Z,40.80
2023-05-16T22:19:06.737Z,41.10
2023-05-16T22:21:33.536Z,41.60
2023-05-16T22:24:00.366Z,42.20
2023-05-16T22:26:27.207Z,41.60
2023-05-16T22:28:54.003Z,41.40
2023-05-16T22:31:20.906Z,41.30
2023-05-16T22:33:47.876Z,41.60
2023-05-16T22:36:14.808Z,41.30
2023-05-16T22:38:41.593Z,41.20
2023-05-16T22:41:08.354Z,41.40
2023-05-16T22:43:35.264Z,41.50
2023-05-16T22:46:03.334Z,41.60
2023-05-16T22:48:30.530Z,41.50
2023-05-16T22:50:57.782Z,42.00
2023-05-16T22:53:24.804Z,41.60
2023-05-16T22:55:51.599Z,41.60
2023-05-16T22:58:18.332Z,41.10
2023-05-16T23:00:45.361Z,41.50
2023-05-16T23:03:12.198Z,41.70
2023-05-16T23:05:39.078Z,41.80
2023-05-16T23:08:06.727Z,41.30
2023-05-16T23:10:33.509Z,41.30
2023-05-16T23:13:00.356Z,41.50
2023-05-16T23:15:27.387Z,41.10
2023-05-16T23:17:54.726Z,41.30
2023-05-16T23:20:21.705Z,41.70
2023-05-16T23:22:48.653Z,41.30
2023-05-16T23:25:15.517Z,41.50
2023-05-16T23:27:42.250Z,41.40
2023-05-16T23:30:09.690Z,41.40
2023-05-16T23:32:36.585Z,41.30
2023-05-16T23:35:03.710Z,41.40
2023-05-16T23:37:31.022Z,41.40
2023-05-16T23:39:58.122Z,41.40
2023-05-16T23:42:24.952Z,41.20
2023-05-16T23:44:51.735Z,41.40
2023-05-16T23:47:18.535Z,41.80
2023-05-16T23:49:45.703Z,42.10
2023-05-16T23:52:12.574Z,42.10
2023-05-16T23:54:39.445Z,42.30
2023-05-16T23:57:06.232Z,42.00
2023-05-16T23:59:33.047Z,41.90
